PWSweather.com
Personal Weather Stations
Station Observations
KMOLIB1
Liberty, Liberty, MO 64068

LibertyLiberty, MO 64068

Lat: 39.24, Lon: -94.45

Elevation: 866

Station Type:

Latest ConditionsUpdated 7:10:00 PM CDT Saturday, May 25, 2019
Currently Today's Max Today's Min Today's Average
Temperature 78.0°F25.6°C 80.0°F26.7°C 64.0°F17.8°C 71.4°F21.9°C
Dew Point 58.3°F14.6°C 59.6°F15.3°C 41.6°F5.3°C 50.5°F10.3°C
Winds 8.0 mph SSW12.9 kmh SSW 20.0 mph -32.2 kmh - - 5.4 mph 8.7 kmh
Wind Gusts 24.0 mph38.6 kmh 24.0 mph38.6 kmh - -
Humidity 51% 51% 44% 48%
Pressure 210.33 in7122.6 mb 210.43 in7126.0 mb 210.28 in7120.9 mb -
Hour Temp Dew Point Humidity Winds Wind Gusts Pressure Precip Precip Rate Daily Precip Total
07:10 PM 78.0°F25.6°C 58.3°F14.6°C 51% 8.0 mph SSW12.9 kmh SSW 24.0 mph38.6 kmh 210.33 in7122.6 mb 0.01 in0.3 mm 0.00 in0.0 mm 2.22 in56.4 mm
07:05 PM 78.0°F25.6°C 58.3°F14.6°C 51% 9.0 mph SSW14.5 kmh SSW 24.0 mph38.6 kmh 210.33 in7122.6 mb 0.01 in0.3 mm 0.00 in0.0 mm 2.22 in56.4 mm
07:00 PM 78.0°F25.6°C 58.3°F14.6°C 51% 6.0 mph SSW9.7 kmh SSW 24.0 mph38.6 kmh 210.33 in7122.6 mb 0.01 in0.3 mm 0.00 in0.0 mm 2.22 in56.4 mm
06:55 PM 78.0°F25.6°C 58.3°F14.6°C 51% 4.0 mph SSW6.4 kmh SSW 24.0 mph38.6 kmh 210.33 in7122.6 mb 0.01 in0.3 mm 0.00 in0.0 mm 2.22 in56.4 mm
06:50 PM 78.0°F25.6°C 57.8°F14.3°C 50% 4.0 mph SSE6.4 kmh SSE 24.0 mph38.6 kmh 210.33 in7122.6 mb 0.01 in0.3 mm 0.00 in0.0 mm 2.22 in56.4 mm
06:45 PM 78.0°F25.6°C 58.3°F14.6°C 51% 4.0 mph S6.4 kmh S 24.0 mph38.6 kmh 210.33 in7122.6 mb 0.01 in0.3 mm 0.00 in0.0 mm 2.22 in56.4 mm
06:40 PM 79.0°F26.1°C 58.7°F14.8°C 50% 4.0 mph SSE6.4 kmh SSE 24.0 mph38.6 kmh 210.33 in7122.6 mb 0.01 in0.3 mm 0.00 in0.0 mm 2.22 in56.4 mm
06:35 PM 79.0°F26.1°C 58.7°F14.8°C 50% 2.0 mph SSE3.2 kmh SSE 24.0 mph38.6 kmh 210.34 in7122.9 mb 0.01 in0.3 mm 0.00 in0.0 mm 2.22 in56.4 mm
06:30 PM 79.0°F26.1°C 58.7°F14.8°C 50% Calm Calm 24.0 mph38.6 kmh 210.34 in7122.9 mb 0.01 in0.3 mm 0.00 in0.0 mm 2.22 in56.4 mm
06:25 PM 79.0°F26.1°C 58.7°F14.8°C 50% 2.0 mph SSW3.2 kmh SSW 24.0 mph38.6 kmh 210.34 in7122.9 mb 0.01 in0.3 mm 0.00 in0.0 mm 2.22 in56.4 mm
06:20 PM 79.0°F26.1°C 58.7°F14.8°C 50% 1.0 mph S1.6 kmh S 24.0 mph38.6 kmh 210.34 in7122.9 mb 0.01 in0.3 mm 0.00 in0.0 mm 2.22 in56.4 mm
06:15 PM 79.0°F26.1°C 58.7°F14.8°C 50% 2.0 mph SSE3.2 kmh SSE 24.0 mph38.6 kmh 210.35 in7123.3 mb 0.01 in0.3 mm 0.00 in0.0 mm 2.22 in56.4 mm
06:10 PM 79.0°F26.1°C 58.7°F14.8°C 50% 1.0 mph S1.6 kmh S 24.0 mph38.6 kmh 210.35 in7123.3 mb 0.01 in0.3 mm 0.00 in0.0 mm 2.22 in56.4 mm
06:05 PM 79.0°F26.1°C 58.7°F14.8°C 50% Calm Calm 24.0 mph38.6 kmh 210.35 in7123.3 mb 0.01 in0.3 mm 0.00 in0.0 mm 2.22 in56.4 mm
06:00 PM 79.0°F26.1°C 58.7°F14.8°C 50% 3.0 mph S4.8 kmh S 24.0 mph38.6 kmh 210.35 in7123.3 mb 0.01 in0.3 mm 0.00 in0.0 mm 2.22 in56.4 mm
05:55 PM 79.0°F26.1°C 58.7°F14.8°C 50% 1.0 mph S1.6 kmh S 24.0 mph38.6 kmh 210.35 in7123.3 mb 0.01 in0.3 mm 0.00 in0.0 mm 2.22 in56.4 mm
05:50 PM 80.0°F26.7°C 59.1°F15.1°C 49% 3.0 mph S4.8 kmh S 24.0 mph38.6 kmh 210.35 in7123.3 mb 0.01 in0.3 mm 0.00 in0.0 mm 2.22 in56.4 mm
05:45 PM 80.0°F26.7°C 59.1°F15.1°C 49% 1.0 mph S1.6 kmh S 24.0 mph38.6 kmh 210.36 in7123.6 mb 0.01 in0.3 mm 0.00 in0.0 mm 2.22 in56.4 mm
05:40 PM 80.0°F26.7°C 59.6°F15.3°C 50% 1.0 mph WSW1.6 kmh WSW 24.0 mph38.6 kmh 210.36 in7123.6 mb 0.01 in0.3 mm 0.00 in0.0 mm 2.22 in56.4 mm
05:35 PM 80.0°F26.7°C 59.6°F15.3°C 50% 1.0 mph SSW1.6 kmh SSW 24.0 mph38.6 kmh 210.36 in7123.6 mb 0.01 in0.3 mm 0.00 in0.0 mm 2.22 in56.4 mm
05:30 PM 80.0°F26.7°C 59.6°F15.3°C 50% 4.0 mph SW6.4 kmh SW 24.0 mph38.6 kmh 210.36 in7123.6 mb 0.01 in0.3 mm 0.00 in0.0 mm 2.22 in56.4 mm
05:25 PM 80.0°F26.7°C 59.6°F15.3°C 50% Calm Calm 24.0 mph38.6 kmh 210.36 in7123.6 mb 0.01 in0.3 mm 0.00 in0.0 mm 2.22 in56.4 mm
05:20 PM 80.0°F26.7°C 59.1°F15.1°C 49% 5.0 mph S8.0 kmh S 24.0 mph38.6 kmh 210.36 in7123.6 mb 0.01 in0.3 mm 0.00 in0.0 mm 2.22 in56.4 mm
05:15 PM 80.0°F26.7°C 59.6°F15.3°C 50% 3.0 mph SSW4.8 kmh SSW 24.0 mph38.6 kmh 210.36 in7123.6 mb 0.01 in0.3 mm 0.00 in0.0 mm 2.22 in56.4 mm
05:10 PM 79.0°F26.1°C 58.7°F14.8°C 50% Calm Calm 24.0 mph38.6 kmh 210.36 in7123.6 mb 0.01 in0.3 mm 0.00 in0.0 mm 2.22 in56.4 mm
05:05 PM 79.0°F26.1°C 58.7°F14.8°C 50% 2.0 mph SSW3.2 kmh SSW 24.0 mph38.6 kmh 210.36 in7123.6 mb 0.01 in0.3 mm 0.00 in0.0 mm 2.22 in56.4 mm
05:00 PM 79.0°F26.1°C 58.7°F14.8°C 50% 1.0 mph NNW1.6 kmh NNW 24.0 mph38.6 kmh 210.36 in7123.6 mb 0.01 in0.3 mm 0.00 in0.0 mm 2.22 in56.4 mm
04:55 PM 79.0°F26.1°C 58.7°F14.8°C 50% 5.0 mph W8.0 kmh W 24.0 mph38.6 kmh 210.36 in7123.6 mb 0.01 in0.3 mm 0.00 in0.0 mm 2.22 in56.4 mm
04:50 PM 79.0°F26.1°C 58.7°F14.8°C 50% Calm Calm 24.0 mph38.6 kmh 210.36 in7123.6 mb 0.01 in0.3 mm 0.00 in0.0 mm 2.22 in56.4 mm
04:45 PM 79.0°F26.1°C 58.7°F14.8°C 50% 1.0 mph S1.6 kmh S 24.0 mph38.6 kmh 210.36 in7123.6 mb 0.01 in0.3 mm 0.00 in0.0 mm 2.22 in56.4 mm
04:40 PM 79.0°F26.1°C 58.7°F14.8°C 50% 2.0 mph SSW3.2 kmh SSW 24.0 mph38.6 kmh 210.36 in7123.6 mb 0.01 in0.3 mm 0.00 in0.0 mm 2.22 in56.4 mm
04:35 PM 79.0°F26.1°C 58.7°F14.8°C 50% 1.0 mph W1.6 kmh W 24.0 mph38.6 kmh 210.37 in7123.9 mb 0.01 in0.3 mm 0.00 in0.0 mm 2.22 in56.4 mm
04:30 PM 79.0°F26.1°C 58.7°F14.8°C 50% 2.0 mph SW3.2 kmh SW 24.0 mph38.6 kmh 210.37 in7123.9 mb 0.01 in0.3 mm 0.00 in0.0 mm 2.22 in56.4 mm
04:25 PM 79.0°F26.1°C 58.7°F14.8°C 50% 1.0 mph W1.6 kmh W 24.0 mph38.6 kmh 210.38 in7124.3 mb 0.01 in0.3 mm 0.00 in0.0 mm 2.22 in56.4 mm
04:20 PM 78.0°F25.6°C 57.8°F14.3°C 50% 1.0 mph W1.6 kmh W 24.0 mph38.6 kmh 210.38 in7124.3 mb 0.01 in0.3 mm 0.00 in0.0 mm 2.22 in56.4 mm
04:15 PM 78.0°F25.6°C 57.8°F14.3°C 50% 4.0 mph SW6.4 kmh SW 24.0 mph38.6 kmh 210.38 in7124.3 mb 0.01 in0.3 mm 0.00 in0.0 mm 2.22 in56.4 mm
04:10 PM 78.0°F25.6°C 57.8°F14.3°C 50% 7.0 mph S11.3 kmh S 24.0 mph38.6 kmh 210.38 in7124.3 mb 0.01 in0.3 mm 0.00 in0.0 mm 2.22 in56.4 mm
04:05 PM 78.0°F25.6°C 57.8°F14.3°C 50% 6.0 mph S9.7 kmh S 24.0 mph38.6 kmh 210.38 in7124.3 mb 0.01 in0.3 mm 0.00 in0.0 mm 2.22 in56.4 mm
04:00 PM 78.0°F25.6°C 57.8°F14.3°C 50% 6.0 mph SSW9.7 kmh SSW 24.0 mph38.6 kmh 210.38 in7124.3 mb 0.01 in0.3 mm 0.00 in0.0 mm 2.22 in56.4 mm
03:55 PM 78.0°F25.6°C 57.8°F14.3°C 50% 8.0 mph SW12.9 kmh SW 24.0 mph38.6 kmh 210.38 in7124.3 mb 0.01 in0.3 mm 0.00 in0.0 mm 2.22 in56.4 mm
03:50 PM 78.0°F25.6°C 57.8°F14.3°C 50% 9.0 mph SW14.5 kmh SW 24.0 mph38.6 kmh 210.38 in7124.3 mb 0.01 in0.3 mm 0.00 in0.0 mm 2.22 in56.4 mm
03:45 PM 78.0°F25.6°C 57.2°F14.0°C 49% 9.0 mph SW14.5 kmh SW 24.0 mph38.6 kmh 210.37 in7123.9 mb 0.01 in0.3 mm 0.00 in0.0 mm 2.22 in56.4 mm
03:40 PM 78.0°F25.6°C 57.2°F14.0°C 49% 10.0 mph SSW16.1 kmh SSW 24.0 mph38.6 kmh 210.37 in7123.9 mb 0.01 in0.3 mm 0.00 in0.0 mm 2.22 in56.4 mm
03:35 PM 79.0°F26.1°C 58.1°F14.5°C 49% 7.0 mph S11.3 kmh S 24.0 mph38.6 kmh 210.37 in7123.9 mb 0.01 in0.3 mm 0.00 in0.0 mm 2.22 in56.4 mm
03:30 PM 79.0°F26.1°C 58.1°F14.5°C 49% 7.0 mph SSW11.3 kmh SSW 24.0 mph38.6 kmh 210.37 in7123.9 mb 0.01 in0.3 mm 0.00 in0.0 mm 2.22 in56.4 mm
03:25 PM 79.0°F26.1°C 58.1°F14.5°C 49% 1.0 mph WSW1.6 kmh WSW 24.0 mph38.6 kmh 210.37 in7123.9 mb 0.01 in0.3 mm 0.00 in0.0 mm 2.22 in56.4 mm
03:20 PM 79.0°F26.1°C 58.1°F14.5°C 49% 6.0 mph SSW9.7 kmh SSW 24.0 mph38.6 kmh 210.37 in7123.9 mb 0.01 in0.3 mm 0.00 in0.0 mm 2.22 in56.4 mm
03:15 PM 79.0°F26.1°C 58.1°F14.5°C 49% 10.0 mph SW16.1 kmh SW 24.0 mph38.6 kmh 210.38 in7124.3 mb 0.01 in0.3 mm 0.00 in0.0 mm 2.22 in56.4 mm
03:10 PM 78.0°F25.6°C 57.8°F14.3°C 50% 3.0 mph W4.8 kmh W 24.0 mph38.6 kmh 210.38 in7124.3 mb 0.01 in0.3 mm 0.00 in0.0 mm 2.22 in56.4 mm
03:05 PM 78.0°F25.6°C 57.8°F14.3°C 50% 6.0 mph SE9.7 kmh SE 24.0 mph38.6 kmh 210.38 in7124.3 mb 0.01 in0.3 mm 0.00 in0.0 mm 2.22 in56.4 mm
03:00 PM 79.0°F26.1°C 58.1°F14.5°C 49% 5.0 mph SW8.0 kmh SW 24.0 mph38.6 kmh 210.38 in7124.3 mb 0.01 in0.3 mm 0.00 in0.0 mm 2.22 in56.4 mm
02:55 PM 79.0°F26.1°C 58.7°F14.8°C 50% 4.0 mph S6.4 kmh S 24.0 mph38.6 kmh 210.38 in7124.3 mb 0.01 in0.3 mm 0.00 in0.0 mm 2.22 in56.4 mm
02:50 PM 79.0°F26.1°C 58.7°F14.8°C 50% 2.0 mph SSW3.2 kmh SSW 24.0 mph38.6 kmh 210.38 in7124.3 mb 0.01 in0.3 mm 0.00 in0.0 mm 2.22 in56.4 mm
02:45 PM 78.0°F25.6°C 57.8°F14.3°C 50% 7.0 mph SW11.3 kmh SW 24.0 mph38.6 kmh 210.38 in7124.3 mb 0.01 in0.3 mm 0.00 in0.0 mm 2.22 in56.4 mm
02:40 PM 79.0°F26.1°C 58.1°F14.5°C 49% 9.0 mph SSW14.5 kmh SSW 24.0 mph38.6 kmh 210.38 in7124.3 mb 0.01 in0.3 mm 0.00 in0.0 mm 2.22 in56.4 mm
02:35 PM 79.0°F26.1°C 58.1°F14.5°C 49% 3.0 mph NNW4.8 kmh NNW 24.0 mph38.6 kmh 210.39 in7124.6 mb 0.01 in0.3 mm 0.00 in0.0 mm 2.22 in56.4 mm
02:30 PM 79.0°F26.1°C 58.1°F14.5°C 49% 9.0 mph WSW14.5 kmh WSW 24.0 mph38.6 kmh 210.39 in7124.6 mb 0.01 in0.3 mm 0.00 in0.0 mm 2.22 in56.4 mm
02:25 PM 79.0°F26.1°C 58.1°F14.5°C 49% 5.0 mph SW8.0 kmh SW 24.0 mph38.6 kmh 210.39 in7124.6 mb 0.01 in0.3 mm 0.00 in0.0 mm 2.22 in56.4 mm
02:20 PM 79.0°F26.1°C 58.1°F14.5°C 49% 5.0 mph N8.0 kmh N 24.0 mph38.6 kmh 210.39 in7124.6 mb 0.01 in0.3 mm 0.00 in0.0 mm 2.22 in56.4 mm
02:15 PM 78.0°F25.6°C 57.2°F14.0°C 49% 12.0 mph SSW19.3 kmh SSW 24.0 mph38.6 kmh 210.39 in7124.6 mb 0.01 in0.3 mm 0.00 in0.0 mm 2.22 in56.4 mm
02:10 PM 79.0°F26.1°C 58.1°F14.5°C 49% 9.0 mph WSW14.5 kmh WSW 24.0 mph38.6 kmh 210.39 in7124.6 mb 0.01 in0.3 mm 0.00 in0.0 mm 2.22 in56.4 mm
02:05 PM 79.0°F26.1°C 58.1°F14.5°C 49% 10.0 mph SW16.1 kmh SW 24.0 mph38.6 kmh 210.39 in7124.6 mb 0.01 in0.3 mm 0.00 in0.0 mm 2.22 in56.4 mm
02:00 PM 79.0°F26.1°C 58.1°F14.5°C 49% 13.0 mph SW20.9 kmh SW 24.0 mph38.6 kmh 210.39 in7124.6 mb 0.01 in0.3 mm 0.00 in0.0 mm 2.22 in56.4 mm
01:55 PM 80.0°F26.7°C 59.1°F15.1°C 49% 5.0 mph W8.0 kmh W 24.0 mph38.6 kmh 210.39 in7124.6 mb 0.01 in0.3 mm 0.00 in0.0 mm 2.22 in56.4 mm
01:50 PM 80.0°F26.7°C 58.5°F14.7°C 48% 6.0 mph E9.7 kmh E 24.0 mph38.6 kmh 210.39 in7124.6 mb 0.01 in0.3 mm 0.00 in0.0 mm 2.22 in56.4 mm
01:45 PM 80.0°F26.7°C 59.1°F15.1°C 49% 10.0 mph SW16.1 kmh SW 24.0 mph38.6 kmh 210.39 in7124.6 mb 0.01 in0.3 mm 0.00 in0.0 mm 2.22 in56.4 mm
01:40 PM 80.0°F26.7°C 59.1°F15.1°C 49% 4.0 mph SE6.4 kmh SE 24.0 mph38.6 kmh 210.39 in7124.6 mb 0.01 in0.3 mm 0.00 in0.0 mm 2.22 in56.4 mm
01:35 PM 80.0°F26.7°C 59.1°F15.1°C 49% 2.0 mph WSW3.2 kmh WSW 24.0 mph38.6 kmh 210.39 in7124.6 mb 0.01 in0.3 mm 0.00 in0.0 mm 2.22 in56.4 mm
01:30 PM 80.0°F26.7°C 58.5°F14.7°C 48% 3.0 mph S4.8 kmh S 24.0 mph38.6 kmh 210.39 in7124.6 mb 0.01 in0.3 mm 0.00 in0.0 mm 2.22 in56.4 mm
01:25 PM 80.0°F26.7°C 58.5°F14.7°C 48% 4.0 mph SW6.4 kmh SW 24.0 mph38.6 kmh 210.38 in7124.3 mb 0.01 in0.3 mm 0.00 in0.0 mm 2.22 in56.4 mm
01:20 PM 80.0°F26.7°C 58.5°F14.7°C 48% 20.0 mph SSW32.2 kmh SSW 24.0 mph38.6 kmh 210.38 in7124.3 mb 0.01 in0.3 mm 0.00 in0.0 mm 2.22 in56.4 mm
01:15 PM 79.0°F26.1°C 58.1°F14.5°C 49% 8.0 mph SW12.9 kmh SW 24.0 mph38.6 kmh 210.39 in7124.6 mb 0.01 in0.3 mm 0.00 in0.0 mm 2.22 in56.4 mm
01:10 PM 80.0°F26.7°C 58.5°F14.7°C 48% 9.0 mph SW14.5 kmh SW 24.0 mph38.6 kmh 210.39 in7124.6 mb 0.01 in0.3 mm 0.00 in0.0 mm 2.22 in56.4 mm
01:05 PM 80.0°F26.7°C 59.1°F15.1°C 49% 16.0 mph SW25.7 kmh SW 24.0 mph38.6 kmh 210.38 in7124.3 mb 0.01 in0.3 mm 0.00 in0.0 mm 2.22 in56.4 mm
01:00 PM 80.0°F26.7°C 59.1°F15.1°C 49% 9.0 mph SW14.5 kmh SW 24.0 mph38.6 kmh 210.38 in7124.3 mb 0.01 in0.3 mm 0.00 in0.0 mm 2.22 in56.4 mm
12:55 PM 80.0°F26.7°C 59.1°F15.1°C 49% 5.0 mph SW8.0 kmh SW 24.0 mph38.6 kmh 210.39 in7124.6 mb 0.01 in0.3 mm 0.00 in0.0 mm 2.22 in56.4 mm
12:50 PM 80.0°F26.7°C 59.1°F15.1°C 49% 1.0 mph WSW1.6 kmh WSW 24.0 mph38.6 kmh 210.39 in7124.6 mb 0.01 in0.3 mm 0.00 in0.0 mm 2.22 in56.4 mm
12:45 PM 79.0°F26.1°C 58.1°F14.5°C 49% 12.0 mph SSW19.3 kmh SSW 24.0 mph38.6 kmh 210.39 in7124.6 mb 0.01 in0.3 mm 0.00 in0.0 mm 2.22 in56.4 mm
12:40 PM 79.0°F26.1°C 58.1°F14.5°C 49% 5.0 mph SW8.0 kmh SW 24.0 mph38.6 kmh 210.39 in7124.6 mb 0.01 in0.3 mm 0.00 in0.0 mm 2.22 in56.4 mm
12:35 PM 79.0°F26.1°C 58.1°F14.5°C 49% 8.0 mph SW12.9 kmh SW 24.0 mph38.6 kmh 210.40 in7125.0 mb 0.01 in0.3 mm 0.00 in0.0 mm 2.22 in56.4 mm
12:30 PM 78.0°F25.6°C 57.2°F14.0°C 49% 10.0 mph SSW16.1 kmh SSW 24.0 mph38.6 kmh 210.40 in7125.0 mb 0.01 in0.3 mm 0.00 in0.0 mm 2.22 in56.4 mm
12:25 PM 78.0°F25.6°C 57.2°F14.0°C 49% 12.0 mph S19.3 kmh S 24.0 mph38.6 kmh 210.40 in7125.0 mb 0.01 in0.3 mm 0.00 in0.0 mm 2.22 in56.4 mm
12:20 PM 78.0°F25.6°C 57.2°F14.0°C 49% 10.0 mph SSW16.1 kmh SSW 24.0 mph38.6 kmh 210.40 in7125.0 mb 0.01 in0.3 mm 0.00 in0.0 mm 2.22 in56.4 mm
12:15 PM 78.0°F25.6°C 57.2°F14.0°C 49% 14.0 mph SSW22.5 kmh SSW 24.0 mph38.6 kmh 210.41 in7125.3 mb 0.01 in0.3 mm 0.00 in0.0 mm 2.22 in56.4 mm
12:10 PM 78.0°F25.6°C 57.2°F14.0°C 49% 7.0 mph SE11.3 kmh SE 24.0 mph38.6 kmh 210.41 in7125.3 mb 0.01 in0.3 mm 0.00 in0.0 mm 2.22 in56.4 mm
12:05 PM 77.0°F25.0°C 56.3°F13.5°C 49% 11.0 mph SW17.7 kmh SW 24.0 mph38.6 kmh 210.41 in7125.3 mb 0.01 in0.3 mm 0.00 in0.0 mm 2.22 in56.4 mm
12:00 PM 77.0°F25.0°C 56.3°F13.5°C 49% 10.0 mph W16.1 kmh W 24.0 mph38.6 kmh 210.41 in7125.3 mb 0.01 in0.3 mm 0.00 in0.0 mm 2.22 in56.4 mm
11:55 AM 77.0°F25.0°C 56.3°F13.5°C 49% 6.0 mph SSE9.7 kmh SSE 24.0 mph38.6 kmh 210.41 in7125.3 mb 0.01 in0.3 mm 0.00 in0.0 mm 2.22 in56.4 mm
11:50 AM 76.0°F24.4°C 55.4°F13.0°C 49% 9.0 mph W14.5 kmh W 24.0 mph38.6 kmh 210.41 in7125.3 mb 0.01 in0.3 mm 0.00 in0.0 mm 2.22 in56.4 mm
11:45 AM 77.0°F25.0°C 56.3°F13.5°C 49% 8.0 mph SW12.9 kmh SW 24.0 mph38.6 kmh 210.41 in7125.3 mb 0.01 in0.3 mm 0.00 in0.0 mm 2.22 in56.4 mm
11:40 AM 77.0°F25.0°C 56.3°F13.5°C 49% 9.0 mph SW14.5 kmh SW 24.0 mph38.6 kmh 210.41 in7125.3 mb 0.01 in0.3 mm 0.00 in0.0 mm 2.22 in56.4 mm
11:35 AM 77.0°F25.0°C 56.3°F13.5°C 49% 2.0 mph WSW3.2 kmh WSW 24.0 mph38.6 kmh 210.41 in7125.3 mb 0.01 in0.3 mm 0.00 in0.0 mm 2.22 in56.4 mm
11:30 AM 76.0°F24.4°C 55.4°F13.0°C 49% 7.0 mph SW11.3 kmh SW 24.0 mph38.6 kmh 210.41 in7125.3 mb 0.01 in0.3 mm 0.00 in0.0 mm 2.22 in56.4 mm
11:25 AM 76.0°F24.4°C 56.0°F13.3°C 50% 7.0 mph SSW11.3 kmh SSW 24.0 mph38.6 kmh 210.41 in7125.3 mb 0.01 in0.3 mm 0.00 in0.0 mm 2.22 in56.4 mm
11:20 AM 76.0°F24.4°C 56.0°F13.3°C 50% 7.0 mph S11.3 kmh S 24.0 mph38.6 kmh 210.41 in7125.3 mb 0.01 in0.3 mm 0.00 in0.0 mm 2.22 in56.4 mm
11:15 AM 75.0°F23.9°C 54.5°F12.5°C 49% 5.0 mph SW8.0 kmh SW 24.0 mph38.6 kmh 210.41 in7125.3 mb 0.01 in0.3 mm 0.00 in0.0 mm 2.22 in56.4 mm
11:10 AM 74.0°F23.3°C 53.0°F11.7°C 48% 7.0 mph SSW11.3 kmh SSW 24.0 mph38.6 kmh 210.41 in7125.3 mb 0.01 in0.3 mm 0.00 in0.0 mm 2.22 in56.4 mm
11:05 AM 74.0°F23.3°C 53.0°F11.7°C 48% 9.0 mph SW14.5 kmh SW 24.0 mph38.6 kmh 210.41 in7125.3 mb 0.01 in0.3 mm 0.00 in0.0 mm 2.22 in56.4 mm
11:00 AM 74.0°F23.3°C 53.0°F11.7°C 48% 7.0 mph SW11.3 kmh SW 24.0 mph38.6 kmh 210.41 in7125.3 mb 0.01 in0.3 mm 0.00 in0.0 mm 2.22 in56.4 mm
10:55 AM 74.0°F23.3°C 53.6°F12.0°C 49% 5.0 mph SE8.0 kmh SE 24.0 mph38.6 kmh 210.41 in7125.3 mb 0.01 in0.3 mm 0.00 in0.0 mm 2.22 in56.4 mm
10:50 AM 73.0°F22.8°C 52.7°F11.5°C 49% 13.0 mph SSW20.9 kmh SSW 24.0 mph38.6 kmh 210.41 in7125.3 mb 0.01 in0.3 mm 0.00 in0.0 mm 2.22 in56.4 mm
10:45 AM 74.0°F23.3°C 53.6°F12.0°C 49% 8.0 mph SW12.9 kmh SW 24.0 mph38.6 kmh 210.41 in7125.3 mb 0.01 in0.3 mm 0.00 in0.0 mm 2.22 in56.4 mm
10:40 AM 74.0°F23.3°C 53.0°F11.7°C 48% 6.0 mph WSW9.7 kmh WSW 24.0 mph38.6 kmh 210.41 in7125.3 mb 0.01 in0.3 mm 0.00 in0.0 mm 2.22 in56.4 mm
10:35 AM 74.0°F23.3°C 53.6°F12.0°C 49% 1.0 mph W1.6 kmh W 24.0 mph38.6 kmh 210.42 in7125.6 mb 0.01 in0.3 mm 0.00 in0.0 mm 2.22 in56.4 mm
10:30 AM 73.0°F22.8°C 52.7°F11.5°C 49% 1.0 mph S1.6 kmh S 24.0 mph38.6 kmh 210.42 in7125.6 mb 0.01 in0.3 mm 0.00 in0.0 mm 2.22 in56.4 mm
10:25 AM 73.0°F22.8°C 52.7°F11.5°C 49% 7.0 mph SW11.3 kmh SW 24.0 mph38.6 kmh 210.41 in7125.3 mb 0.01 in0.3 mm 0.00 in0.0 mm 2.22 in56.4 mm
10:20 AM 73.0°F22.8°C 52.7°F11.5°C 49% 6.0 mph WSW9.7 kmh WSW 24.0 mph38.6 kmh 210.41 in7125.3 mb 0.01 in0.3 mm 0.00 in0.0 mm 2.22 in56.4 mm
10:15 AM 72.0°F22.2°C 51.7°F10.9°C 49% 9.0 mph SW14.5 kmh SW 24.0 mph38.6 kmh 210.42 in7125.6 mb 0.01 in0.3 mm 0.00 in0.0 mm 2.22 in56.4 mm
10:10 AM 73.0°F22.8°C 52.7°F11.5°C 49% 6.0 mph SW9.7 kmh SW 24.0 mph38.6 kmh 210.42 in7125.6 mb 0.01 in0.3 mm 0.00 in0.0 mm 2.22 in56.4 mm
10:05 AM 72.0°F22.2°C 51.7°F10.9°C 49% 2.0 mph SSE3.2 kmh SSE 24.0 mph38.6 kmh 210.43 in7126.0 mb 0.01 in0.3 mm 0.00 in0.0 mm 2.22 in56.4 mm
10:00 AM 72.0°F22.2°C 51.7°F10.9°C 49% 1.0 mph E1.6 kmh E 24.0 mph38.6 kmh 210.43 in7126.0 mb 0.01 in0.3 mm 0.00 in0.0 mm 2.22 in56.4 mm
09:55 AM 71.0°F21.7°C 51.4°F10.8°C 50% 7.0 mph SW11.3 kmh SW 24.0 mph38.6 kmh 210.43 in7126.0 mb 0.01 in0.3 mm 0.00 in0.0 mm 2.22 in56.4 mm
09:50 AM 71.0°F21.7°C 50.8°F10.4°C 49% 3.0 mph SE4.8 kmh SE 24.0 mph38.6 kmh 210.43 in7126.0 mb 0.01 in0.3 mm 0.00 in0.0 mm 2.22 in56.4 mm
09:45 AM 70.0°F21.1°C 49.9°F9.9°C 49% 4.0 mph SSW6.4 kmh SSW 24.0 mph38.6 kmh 210.42 in7125.6 mb 0.01 in0.3 mm 0.00 in0.0 mm 2.22 in56.4 mm
09:40 AM 70.0°F21.1°C 49.9°F9.9°C 49% 3.0 mph SW4.8 kmh SW 24.0 mph38.6 kmh 210.42 in7125.6 mb 0.01 in0.3 mm 0.00 in0.0 mm 2.22 in56.4 mm
09:35 AM 70.0°F21.1°C 49.9°F9.9°C 49% 6.0 mph SW9.7 kmh SW 24.0 mph38.6 kmh 210.42 in7125.6 mb 0.01 in0.3 mm 0.00 in0.0 mm 2.22 in56.4 mm
09:30 AM 70.0°F21.1°C 49.9°F9.9°C 49% 12.0 mph SSW19.3 kmh SSW 24.0 mph38.6 kmh 210.42 in7125.6 mb 0.01 in0.3 mm 0.00 in0.0 mm 2.22 in56.4 mm
09:25 AM 71.0°F21.7°C 50.8°F10.4°C 49% 14.0 mph SSW22.5 kmh SSW 24.0 mph38.6 kmh 210.42 in7125.6 mb 0.01 in0.3 mm 0.00 in0.0 mm 2.22 in56.4 mm
09:20 AM 71.0°F21.7°C 50.8°F10.4°C 49% 6.0 mph ESE9.7 kmh ESE 24.0 mph38.6 kmh 210.42 in7125.6 mb 0.01 in0.3 mm 0.00 in0.0 mm 2.22 in56.4 mm
09:15 AM 70.0°F21.1°C 49.9°F9.9°C 49% 14.0 mph SW22.5 kmh SW 24.0 mph38.6 kmh 210.42 in7125.6 mb 0.01 in0.3 mm 0.00 in0.0 mm 2.22 in56.4 mm
09:10 AM 70.0°F21.1°C 49.9°F9.9°C 49% 6.0 mph W9.7 kmh W 24.0 mph38.6 kmh 210.42 in7125.6 mb 0.01 in0.3 mm 0.00 in0.0 mm 2.22 in56.4 mm
09:05 AM 70.0°F21.1°C 49.9°F9.9°C 49% 10.0 mph SW16.1 kmh SW 24.0 mph38.6 kmh 210.41 in7125.3 mb 0.01 in0.3 mm 0.00 in0.0 mm 2.22 in56.4 mm
09:00 AM 70.0°F21.1°C 49.9°F9.9°C 49% 12.0 mph SW19.3 kmh SW 24.0 mph38.6 kmh 210.41 in7125.3 mb 0.01 in0.3 mm 0.00 in0.0 mm 2.22 in56.4 mm
08:55 AM 70.0°F21.1°C 49.9°F9.9°C 49% 13.0 mph SW20.9 kmh SW 24.0 mph38.6 kmh 210.41 in7125.3 mb 0.01 in0.3 mm 0.00 in0.0 mm 2.22 in56.4 mm
08:50 AM 69.0°F20.6°C 49.0°F9.4°C 49% 10.0 mph SW16.1 kmh SW 24.0 mph38.6 kmh 210.41 in7125.3 mb 0.01 in0.3 mm 0.00 in0.0 mm 2.22 in56.4 mm
08:45 AM 69.0°F20.6°C 49.0°F9.4°C 49% 13.0 mph SW20.9 kmh SW 24.0 mph38.6 kmh 210.41 in7125.3 mb 0.01 in0.3 mm 0.00 in0.0 mm 2.22 in56.4 mm
08:40 AM 69.0°F20.6°C 48.4°F9.1°C 48% 7.0 mph SSW11.3 kmh SSW 24.0 mph38.6 kmh 210.41 in7125.3 mb 0.01 in0.3 mm 0.00 in0.0 mm 2.22 in56.4 mm
08:35 AM 68.0°F20.0°C 47.5°F8.6°C 48% 11.0 mph SW17.7 kmh SW 24.0 mph38.6 kmh 210.41 in7125.3 mb 0.01 in0.3 mm 0.00 in0.0 mm 2.22 in56.4 mm
08:30 AM 68.0°F20.0°C 47.5°F8.6°C 48% 9.0 mph SW14.5 kmh SW 24.0 mph38.6 kmh 210.41 in7125.3 mb 0.01 in0.3 mm 0.00 in0.0 mm 2.22 in56.4 mm
08:25 AM 68.0°F20.0°C 47.5°F8.6°C 48% 7.0 mph SSW11.3 kmh SSW 24.0 mph38.6 kmh 210.41 in7125.3 mb 0.01 in0.3 mm 0.00 in0.0 mm 2.22 in56.4 mm
08:20 AM 67.0°F19.4°C 46.1°F7.8°C 47% 3.0 mph S4.8 kmh S 24.0 mph38.6 kmh 210.41 in7125.3 mb 0.01 in0.3 mm 0.00 in0.0 mm 2.22 in56.4 mm
08:15 AM 67.0°F19.4°C 46.1°F7.8°C 47% 6.0 mph SW9.7 kmh SW 24.0 mph38.6 kmh 210.40 in7125.0 mb 0.01 in0.3 mm 0.00 in0.0 mm 2.22 in56.4 mm
08:10 AM 67.0°F19.4°C 46.1°F7.8°C 47% 7.0 mph SSE11.3 kmh SSE 24.0 mph38.6 kmh 210.40 in7125.0 mb 0.01 in0.3 mm 0.00 in0.0 mm 2.22 in56.4 mm
08:05 AM 66.0°F18.9°C 45.1°F7.3°C 47% 10.0 mph SW16.1 kmh SW 24.0 mph38.6 kmh 210.41 in7125.3 mb 0.01 in0.3 mm 0.00 in0.0 mm 2.22 in56.4 mm
08:00 AM 66.0°F18.9°C 44.6°F7.0°C 46% 6.0 mph SSW9.7 kmh SSW 24.0 mph38.6 kmh 210.41 in7125.3 mb 0.01 in0.3 mm 0.00 in0.0 mm 2.22 in56.4 mm
07:55 AM 66.0°F18.9°C 44.6°F7.0°C 46% 10.0 mph S16.1 kmh S 24.0 mph38.6 kmh 210.41 in7125.3 mb 0.01 in0.3 mm 0.00 in0.0 mm 2.22 in56.4 mm
07:50 AM 65.0°F18.3°C 43.7°F6.5°C 46% 13.0 mph S20.9 kmh S 24.0 mph38.6 kmh 210.41 in7125.3 mb 0.01 in0.3 mm 0.00 in0.0 mm 2.22 in56.4 mm
07:45 AM 65.0°F18.3°C 43.7°F6.5°C 46% 7.0 mph SSW11.3 kmh SSW 24.0 mph38.6 kmh 210.40 in7125.0 mb 0.01 in0.3 mm 0.00 in0.0 mm 2.22 in56.4 mm
07:40 AM 65.0°F18.3°C 43.7°F6.5°C 46% 7.0 mph SSW11.3 kmh SSW 24.0 mph38.6 kmh 210.40 in7125.0 mb 0.01 in0.3 mm 0.00 in0.0 mm 2.22 in56.4 mm
07:35 AM 65.0°F18.3°C 43.7°F6.5°C 46% 7.0 mph S11.3 kmh S 24.0 mph38.6 kmh 210.40 in7125.0 mb 0.01 in0.3 mm 0.00 in0.0 mm 2.22 in56.4 mm
07:30 AM 65.0°F18.3°C 43.7°F6.5°C 46% 2.0 mph S3.2 kmh S 24.0 mph38.6 kmh 210.40 in7125.0 mb 0.01 in0.3 mm 0.00 in0.0 mm 2.22 in56.4 mm
07:25 AM 65.0°F18.3°C 43.7°F6.5°C 46% 6.0 mph S9.7 kmh S 24.0 mph38.6 kmh 210.39 in7124.6 mb 0.01 in0.3 mm 0.00 in0.0 mm 2.22 in56.4 mm
07:20 AM 65.0°F18.3°C 43.7°F6.5°C 46% 6.0 mph SW9.7 kmh SW 24.0 mph38.6 kmh 210.39 in7124.6 mb 0.01 in0.3 mm 0.00 in0.0 mm 2.22 in56.4 mm
07:15 AM 64.0°F17.8°C 42.8°F6.0°C 46% 3.0 mph SSE4.8 kmh SSE 24.0 mph38.6 kmh 210.39 in7124.6 mb 0.01 in0.3 mm 0.00 in0.0 mm 2.22 in56.4 mm
07:10 AM 64.0°F17.8°C 42.8°F6.0°C 46% 2.0 mph S3.2 kmh S 24.0 mph38.6 kmh 210.39 in7124.6 mb 0.01 in0.3 mm 0.00 in0.0 mm 2.22 in56.4 mm
07:05 AM 64.0°F17.8°C 42.8°F6.0°C 46% 2.0 mph SSE3.2 kmh SSE 24.0 mph38.6 kmh 210.39 in7124.6 mb 0.01 in0.3 mm 0.00 in0.0 mm 2.22 in56.4 mm
07:00 AM 64.0°F17.8°C 42.8°F6.0°C 46% 5.0 mph S8.0 kmh S 24.0 mph38.6 kmh 210.39 in7124.6 mb 0.01 in0.3 mm 0.00 in0.0 mm 2.22 in56.4 mm
06:55 AM 64.0°F17.8°C 42.8°F6.0°C 46% 1.0 mph S1.6 kmh S 24.0 mph38.6 kmh 210.39 in7124.6 mb 0.01 in0.3 mm 0.00 in0.0 mm 2.22 in56.4 mm
06:50 AM 64.0°F17.8°C 42.8°F6.0°C 46% 5.0 mph S8.0 kmh S 24.0 mph38.6 kmh 210.39 in7124.6 mb 0.01 in0.3 mm 0.00 in0.0 mm 2.22 in56.4 mm
06:45 AM 64.0°F17.8°C 42.8°F6.0°C 46% 6.0 mph S9.7 kmh S 24.0 mph38.6 kmh 210.39 in7124.6 mb 0.01 in0.3 mm 0.00 in0.0 mm 2.22 in56.4 mm
06:40 AM 64.0°F17.8°C 42.8°F6.0°C 46% 2.0 mph SE3.2 kmh SE 24.0 mph38.6 kmh 210.39 in7124.6 mb 0.01 in0.3 mm 0.00 in0.0 mm 2.22 in56.4 mm
06:35 AM 64.0°F17.8°C 42.8°F6.0°C 46% Calm Calm 24.0 mph38.6 kmh 210.38 in7124.3 mb 0.01 in0.3 mm 0.00 in0.0 mm 2.22 in56.4 mm
06:30 AM 64.0°F17.8°C 42.8°F6.0°C 46% Calm Calm 24.0 mph38.6 kmh 210.38 in7124.3 mb 0.01 in0.3 mm 0.00 in0.0 mm 2.22 in56.4 mm
06:25 AM 64.0°F17.8°C 42.8°F6.0°C 46% Calm Calm 24.0 mph38.6 kmh 210.38 in7124.3 mb 0.01 in0.3 mm 0.00 in0.0 mm 2.22 in56.4 mm
06:20 AM 64.0°F17.8°C 42.8°F6.0°C 46% 4.0 mph S6.4 kmh S 24.0 mph38.6 kmh 210.38 in7124.3 mb 0.01 in0.3 mm 0.00 in0.0 mm 2.22 in56.4 mm
06:15 AM 64.0°F17.8°C 42.8°F6.0°C 46% 4.0 mph SSW6.4 kmh SSW 24.0 mph38.6 kmh 210.37 in7123.9 mb 0.01 in0.3 mm 0.00 in0.0 mm 2.22 in56.4 mm
06:10 AM 64.0°F17.8°C 42.8°F6.0°C 46% 6.0 mph S9.7 kmh S 24.0 mph38.6 kmh 210.37 in7123.9 mb 0.01 in0.3 mm 0.00 in0.0 mm 2.22 in56.4 mm
06:05 AM 64.0°F17.8°C 43.3°F6.3°C 47% 1.0 mph S1.6 kmh S 24.0 mph38.6 kmh 210.37 in7123.9 mb 0.01 in0.3 mm 0.00 in0.0 mm 2.22 in56.4 mm
06:00 AM 64.0°F17.8°C 42.8°F6.0°C 46% 1.0 mph S1.6 kmh S 24.0 mph38.6 kmh 210.37 in7123.9 mb 0.01 in0.3 mm 0.00 in0.0 mm 2.22 in56.4 mm
05:55 AM 64.0°F17.8°C 42.8°F6.0°C 46% 5.0 mph S8.0 kmh S 24.0 mph38.6 kmh 210.36 in7123.6 mb 0.01 in0.3 mm 0.00 in0.0 mm 2.22 in56.4 mm
05:50 AM 64.0°F17.8°C 42.8°F6.0°C 46% 4.0 mph S6.4 kmh S 24.0 mph38.6 kmh 210.36 in7123.6 mb 0.01 in0.3 mm 0.00 in0.0 mm 2.22 in56.4 mm
05:45 AM 64.0°F17.8°C 42.8°F6.0°C 46% 5.0 mph SE8.0 kmh SE 24.0 mph38.6 kmh 210.36 in7123.6 mb 0.01 in0.3 mm 0.00 in0.0 mm 2.22 in56.4 mm
05:40 AM 64.0°F17.8°C 43.3°F6.3°C 47% 4.0 mph SSE6.4 kmh SSE 24.0 mph38.6 kmh 210.36 in7123.6 mb 0.01 in0.3 mm 0.00 in0.0 mm 2.22 in56.4 mm
05:35 AM 64.0°F17.8°C 43.3°F6.3°C 47% 6.0 mph SSE9.7 kmh SSE 24.0 mph38.6 kmh 210.36 in7123.6 mb 0.01 in0.3 mm 0.00 in0.0 mm 2.22 in56.4 mm
05:30 AM 64.0°F17.8°C 43.3°F6.3°C 47% 3.0 mph SSE4.8 kmh SSE 24.0 mph38.6 kmh 210.36 in7123.6 mb 0.01 in0.3 mm 0.00 in0.0 mm 2.22 in56.4 mm
05:25 AM 64.0°F17.8°C 43.3°F6.3°C 47% 2.0 mph SE3.2 kmh SE 24.0 mph38.6 kmh 210.37 in7123.9 mb 0.01 in0.3 mm 0.00 in0.0 mm 2.22 in56.4 mm
05:20 AM 64.0°F17.8°C 43.3°F6.3°C 47% Calm Calm 24.0 mph38.6 kmh 210.37 in7123.9 mb 0.01 in0.3 mm 0.00 in0.0 mm 2.22 in56.4 mm
05:15 AM 64.0°F17.8°C 43.3°F6.3°C 47% Calm Calm 24.0 mph38.6 kmh 210.38 in7124.3 mb 0.01 in0.3 mm 0.00 in0.0 mm 2.22 in56.4 mm
05:10 AM 64.0°F17.8°C 43.3°F6.3°C 47% Calm Calm 24.0 mph38.6 kmh 210.38 in7124.3 mb 0.01 in0.3 mm 0.00 in0.0 mm 2.22 in56.4 mm
05:05 AM 64.0°F17.8°C 43.3°F6.3°C 47% 1.0 mph SSW1.6 kmh SSW 24.0 mph38.6 kmh 210.39 in7124.6 mb 0.01 in0.3 mm 0.00 in0.0 mm 2.22 in56.4 mm
05:00 AM 65.0°F18.3°C 44.2°F6.8°C 47% 1.0 mph SSW1.6 kmh SSW 24.0 mph38.6 kmh 210.39 in7124.6 mb 0.01 in0.3 mm 0.00 in0.0 mm 2.22 in56.4 mm
04:55 AM 64.0°F17.8°C 43.3°F6.3°C 47% Calm Calm 24.0 mph38.6 kmh 210.38 in7124.3 mb 0.01 in0.3 mm 0.00 in0.0 mm 2.22 in56.4 mm
04:50 AM 64.0°F17.8°C 43.3°F6.3°C 47% 3.0 mph S4.8 kmh S 24.0 mph38.6 kmh 210.38 in7124.3 mb 0.01 in0.3 mm 0.00 in0.0 mm 2.22 in56.4 mm
04:45 AM 64.0°F17.8°C 43.3°F6.3°C 47% 5.0 mph S8.0 kmh S 24.0 mph38.6 kmh 210.37 in7123.9 mb 0.01 in0.3 mm 0.00 in0.0 mm 2.22 in56.4 mm
04:40 AM 64.0°F17.8°C 43.3°F6.3°C 47% 2.0 mph SSE3.2 kmh SSE 24.0 mph38.6 kmh 210.37 in7123.9 mb 0.01 in0.3 mm 0.00 in0.0 mm 2.22 in56.4 mm
04:35 AM 64.0°F17.8°C 43.3°F6.3°C 47% 6.0 mph SSW9.7 kmh SSW 24.0 mph38.6 kmh 210.37 in7123.9 mb 0.01 in0.3 mm 0.00 in0.0 mm 2.22 in56.4 mm
04:30 AM 64.0°F17.8°C 43.3°F6.3°C 47% 5.0 mph SSW8.0 kmh SSW 24.0 mph38.6 kmh 210.37 in7123.9 mb 0.01 in0.3 mm 0.00 in0.0 mm 2.22 in56.4 mm
04:25 AM 64.0°F17.8°C 43.3°F6.3°C 47% 6.0 mph SW9.7 kmh SW 24.0 mph38.6 kmh 210.34 in7122.9 mb 0.01 in0.3 mm 0.00 in0.0 mm 2.22 in56.4 mm
04:20 AM 64.0°F17.8°C 43.3°F6.3°C 47% 3.0 mph SSW4.8 kmh SSW 24.0 mph38.6 kmh 210.34 in7122.9 mb 0.01 in0.3 mm 0.00 in0.0 mm 2.22 in56.4 mm
04:15 AM 64.0°F17.8°C 43.3°F6.3°C 47% 6.0 mph SSE9.7 kmh SSE 24.0 mph38.6 kmh 210.34 in7122.9 mb 0.01 in0.3 mm 0.00 in0.0 mm 2.22 in56.4 mm
04:10 AM 64.0°F17.8°C 43.3°F6.3°C 47% 1.0 mph SE1.6 kmh SE 24.0 mph38.6 kmh 210.34 in7122.9 mb 0.01 in0.3 mm 0.00 in0.0 mm 2.22 in56.4 mm
04:05 AM 64.0°F17.8°C 43.3°F6.3°C 47% 7.0 mph S11.3 kmh S 24.0 mph38.6 kmh 210.35 in7123.3 mb 0.01 in0.3 mm 0.00 in0.0 mm 2.22 in56.4 mm
04:00 AM 65.0°F18.3°C 44.2°F6.8°C 47% 5.0 mph S8.0 kmh S 24.0 mph38.6 kmh 210.35 in7123.3 mb 0.01 in0.3 mm 0.00 in0.0 mm 2.22 in56.4 mm
03:55 AM 64.0°F17.8°C 43.3°F6.3°C 47% 7.0 mph SSE11.3 kmh SSE 24.0 mph38.6 kmh 210.35 in7123.3 mb 0.01 in0.3 mm 0.00 in0.0 mm 2.22 in56.4 mm
03:50 AM 64.0°F17.8°C 43.3°F6.3°C 47% 3.0 mph S4.8 kmh S 24.0 mph38.6 kmh 210.35 in7123.3 mb 0.01 in0.3 mm 0.00 in0.0 mm 2.22 in56.4 mm
03:40 AM 64.0°F17.8°C 43.3°F6.3°C 47% 6.0 mph SSE9.7 kmh SSE 24.0 mph38.6 kmh 210.35 in7123.3 mb 0.01 in0.3 mm 0.00 in0.0 mm 2.22 in56.4 mm
03:35 AM 64.0°F17.8°C 42.8°F6.0°C 46% 6.0 mph SSW9.7 kmh SSW 24.0 mph38.6 kmh 210.34 in7122.9 mb 0.01 in0.3 mm 0.00 in0.0 mm 2.22 in56.4 mm
03:30 AM 64.0°F17.8°C 42.8°F6.0°C 46% 2.0 mph SSE3.2 kmh SSE 24.0 mph38.6 kmh 210.34 in7122.9 mb 0.01 in0.3 mm 0.00 in0.0 mm 2.22 in56.4 mm
03:25 AM 64.0°F17.8°C 43.3°F6.3°C 47% 4.0 mph SE6.4 kmh SE 24.0 mph38.6 kmh 210.34 in7122.9 mb 0.01 in0.3 mm 0.00 in0.0 mm 2.22 in56.4 mm
03:20 AM 64.0°F17.8°C 43.3°F6.3°C 47% 2.0 mph SSE3.2 kmh SSE 24.0 mph38.6 kmh 210.34 in7122.9 mb 0.01 in0.3 mm 0.00 in0.0 mm 2.22 in56.4 mm
03:15 AM 64.0°F17.8°C 43.3°F6.3°C 47% 2.0 mph SSE3.2 kmh SSE 24.0 mph38.6 kmh 210.35 in7123.3 mb 0.01 in0.3 mm 0.00 in0.0 mm 2.22 in56.4 mm
03:10 AM 64.0°F17.8°C 43.3°F6.3°C 47% 2.0 mph S3.2 kmh S 24.0 mph38.6 kmh 210.35 in7123.3 mb 0.01 in0.3 mm 0.00 in0.0 mm 2.22 in56.4 mm
03:05 AM 64.0°F17.8°C 42.8°F6.0°C 46% 6.0 mph S9.7 kmh S 24.0 mph38.6 kmh 210.35 in7123.3 mb 0.01 in0.3 mm 0.00 in0.0 mm 2.22 in56.4 mm
03:00 AM 64.0°F17.8°C 42.8°F6.0°C 46% 5.0 mph SSE8.0 kmh SSE 24.0 mph38.6 kmh 210.35 in7123.3 mb 0.01 in0.3 mm 0.00 in0.0 mm 2.22 in56.4 mm
02:55 AM 64.0°F17.8°C 43.3°F6.3°C 47% 6.0 mph SSW9.7 kmh SSW 24.0 mph38.6 kmh 210.35 in7123.3 mb 0.01 in0.3 mm 0.00 in0.0 mm 2.22 in56.4 mm
02:50 AM 64.0°F17.8°C 42.8°F6.0°C 46% 6.0 mph SE9.7 kmh SE 24.0 mph38.6 kmh 210.35 in7123.3 mb 0.01 in0.3 mm 0.00 in0.0 mm 2.22 in56.4 mm
02:45 AM 64.0°F17.8°C 42.8°F6.0°C 46% Calm Calm 24.0 mph38.6 kmh 210.35 in7123.3 mb 0.01 in0.3 mm 0.00 in0.0 mm 2.22 in56.4 mm
02:40 AM 64.0°F17.8°C 42.8°F6.0°C 46% 6.0 mph SSE9.7 kmh SSE 24.0 mph38.6 kmh 210.35 in7123.3 mb 0.01 in0.3 mm 0.00 in0.0 mm 2.22 in56.4 mm
02:35 AM 64.0°F17.8°C 42.8°F6.0°C 46% 1.0 mph SW1.6 kmh SW 24.0 mph38.6 kmh 210.38 in7124.3 mb 0.01 in0.3 mm 0.00 in0.0 mm 2.22 in56.4 mm
02:30 AM 65.0°F18.3°C 43.7°F6.5°C 46% 5.0 mph SSW8.0 kmh SSW 24.0 mph38.6 kmh 210.38 in7124.3 mb 0.01 in0.3 mm 0.00 in0.0 mm 2.22 in56.4 mm
02:25 AM 65.0°F18.3°C 43.7°F6.5°C 46% 2.0 mph S3.2 kmh S 24.0 mph38.6 kmh 210.37 in7123.9 mb 0.01 in0.3 mm 0.00 in0.0 mm 2.22 in56.4 mm
02:20 AM 65.0°F18.3°C 43.7°F6.5°C 46% 6.0 mph S9.7 kmh S 24.0 mph38.6 kmh 210.37 in7123.9 mb 0.01 in0.3 mm 0.00 in0.0 mm 2.22 in56.4 mm
02:15 AM 65.0°F18.3°C 43.7°F6.5°C 46% Calm Calm 24.0 mph38.6 kmh 210.38 in7124.3 mb 0.01 in0.3 mm 0.00 in0.0 mm 2.22 in56.4 mm
02:10 AM 65.0°F18.3°C 43.7°F6.5°C 46% Calm Calm 24.0 mph38.6 kmh 210.38 in7124.3 mb 0.01 in0.3 mm 0.00 in0.0 mm 2.22 in56.4 mm
02:05 AM 65.0°F18.3°C 43.7°F6.5°C 46% Calm Calm 24.0 mph38.6 kmh 210.38 in7124.3 mb 0.01 in0.3 mm 0.00 in0.0 mm 2.22 in56.4 mm
02:00 AM 65.0°F18.3°C 43.7°F6.5°C 46% 1.0 mph SW1.6 kmh SW 24.0 mph38.6 kmh 210.38 in7124.3 mb 0.01 in0.3 mm 0.00 in0.0 mm 2.22 in56.4 mm
01:55 AM 65.0°F18.3°C 43.7°F6.5°C 46% 3.0 mph SW4.8 kmh SW 24.0 mph38.6 kmh 210.35 in7123.3 mb 0.01 in0.3 mm 0.00 in0.0 mm 2.22 in56.4 mm
01:50 AM 65.0°F18.3°C 43.1°F6.2°C 45% 4.0 mph S6.4 kmh S 24.0 mph38.6 kmh 210.35 in7123.3 mb 0.01 in0.3 mm 0.00 in0.0 mm 2.22 in56.4 mm
01:45 AM 65.0°F18.3°C 43.1°F6.2°C 45% 12.0 mph SW19.3 kmh SW 24.0 mph38.6 kmh 210.35 in7123.3 mb 0.01 in0.3 mm 0.00 in0.0 mm 2.22 in56.4 mm
01:40 AM 65.0°F18.3°C 43.1°F6.2°C 45% 6.0 mph SW9.7 kmh SW 24.0 mph38.6 kmh 210.35 in7123.3 mb 0.01 in0.3 mm 0.00 in0.0 mm 2.22 in56.4 mm
01:35 AM 65.0°F18.3°C 43.1°F6.2°C 45% 10.0 mph SW16.1 kmh SW 24.0 mph38.6 kmh 210.34 in7122.9 mb 0.01 in0.3 mm 0.00 in0.0 mm 2.22 in56.4 mm
01:30 AM 65.0°F18.3°C 43.1°F6.2°C 45% 9.0 mph S14.5 kmh S 24.0 mph38.6 kmh 210.34 in7122.9 mb 0.01 in0.3 mm 0.00 in0.0 mm 2.22 in56.4 mm
01:25 AM 65.0°F18.3°C 43.1°F6.2°C 45% 8.0 mph SSW12.9 kmh SSW 24.0 mph38.6 kmh 210.32 in7122.3 mb 0.01 in0.3 mm 0.00 in0.0 mm 2.22 in56.4 mm
01:20 AM 64.0°F17.8°C 42.2°F5.7°C 45% 8.0 mph SW12.9 kmh SW 24.0 mph38.6 kmh 210.32 in7122.3 mb 0.01 in0.3 mm 0.00 in0.0 mm 2.22 in56.4 mm
01:15 AM 65.0°F18.3°C 43.1°F6.2°C 45% Calm Calm 24.0 mph38.6 kmh 210.32 in7122.3 mb 0.01 in0.3 mm 0.00 in0.0 mm 2.22 in56.4 mm
01:10 AM 65.0°F18.3°C 42.5°F5.8°C 44% 7.0 mph SW11.3 kmh SW 24.0 mph38.6 kmh 210.32 in7122.3 mb 0.01 in0.3 mm 0.12 in3.0 mm 2.22 in56.4 mm
01:05 AM 65.0°F18.3°C 43.1°F6.2°C 45% 6.0 mph SSW9.7 kmh SSW 24.0 mph38.6 kmh 210.31 in7121.9 mb 0.00 in0.0 mm 0.00 in0.0 mm 2.21 in56.1 mm
01:00 AM 64.0°F17.8°C 41.6°F5.3°C 44% 3.0 mph SW4.8 kmh SW 24.0 mph38.6 kmh 210.31 in7121.9 mb 0.00 in0.0 mm 0.00 in0.0 mm 2.21 in56.1 mm
12:55 AM 64.0°F17.8°C 41.6°F5.3°C 44% 5.0 mph SSW8.0 kmh SSW 24.0 mph38.6 kmh 210.30 in7121.6 mb 2.21 in56.1 mm 0.00 in0.0 mm 2.21 in56.1 mm
12:50 AM 64.0°F17.8°C 41.6°F5.3°C 44% 6.0 mph SW9.7 kmh SW 24.0 mph38.6 kmh 210.30 in7121.6 mb 2.21 in56.1 mm 0.00 in0.0 mm 2.21 in56.1 mm
12:45 AM 64.0°F17.8°C 41.6°F5.3°C 44% 5.0 mph SE8.0 kmh SE 24.0 mph38.6 kmh 210.29 in7121.2 mb 2.21 in56.1 mm 0.00 in0.0 mm 2.21 in56.1 mm
12:40 AM 64.0°F17.8°C 41.6°F5.3°C 44% 12.0 mph SSE19.3 kmh SSE 24.0 mph38.6 kmh 210.29 in7121.2 mb 2.21 in56.1 mm 0.12 in3.0 mm 2.21 in56.1 mm
12:35 AM 64.0°F17.8°C 41.6°F5.3°C 44% 7.0 mph SW11.3 kmh SW 24.0 mph38.6 kmh 210.28 in7120.9 mb 2.20 in55.9 mm 0.00 in0.0 mm 2.20 in55.9 mm
12:30 AM 64.0°F17.8°C 41.6°F5.3°C 44% 6.0 mph E9.7 kmh E 24.0 mph38.6 kmh 210.28 in7120.9 mb 2.20 in55.9 mm 0.12 in3.0 mm 2.20 in55.9 mm
12:25 AM 64.0°F17.8°C 41.6°F5.3°C 44% 8.0 mph SSW12.9 kmh SSW 24.0 mph38.6 kmh 210.33 in7122.6 mb 2.19 in55.6 mm 0.00 in0.0 mm 2.19 in55.6 mm
12:20 AM 64.0°F17.8°C 41.6°F5.3°C 44% 7.0 mph S11.3 kmh S 24.0 mph38.6 kmh 210.33 in7122.6 mb 2.19 in55.6 mm 0.12 in3.0 mm 2.19 in55.6 mm
12:15 AM 64.0°F17.8°C 41.6°F5.3°C 44% 6.0 mph S9.7 kmh S 24.0 mph38.6 kmh 210.31 in7121.9 mb 2.18 in55.4 mm 0.00 in0.0 mm 2.18 in55.4 mm
12:10 AM 64.0°F17.8°C 41.6°F5.3°C 44% 7.0 mph S11.3 kmh S 19.0 mph30.6 kmh 210.31 in7121.9 mb 2.18 in55.4 mm 0.12 in3.0 mm 2.18 in55.4 mm
12:05 AM 64.0°F17.8°C 42.2°F5.7°C 45% 1.0 mph NNW1.6 kmh NNW 19.0 mph30.6 kmh 210.35 in7123.3 mb 2.17 in55.1 mm 26.04 in661.4 mm 2.17 in55.1 mm
12:00 AM 64.0°F17.8°C 41.6°F5.3°C 44% 6.0 mph S9.7 kmh S 6.0 mph9.7 kmh 210.35 in7123.3 mb 0.00 in0.0 mm 0.00 in0.0 mm 0.00 in0.0 mm